sensor_id;sensor_type;location;lat;lon;timestamp;pressure;altitude;pressure_sealevel;temperature;humidity
56334;BME280;42240;53.626;55.886;2022-09-09T00:01:37;76540.97;;;-145.10;96.02
56334;BME280;42240;53.626;55.886;2022-09-09T00:02:43;76537.03;;;-145.10;96.18
56334;BME280;42240;53.626;55.886;2022-09-09T00:06:06;76548.88;;;-145.10;96.33
56334;BME280;42240;53.626;55.886;2022-09-09T00:07:48;76540.97;;;-145.10;96.64
56334;BME280;42240;53.626;55.886;2022-09-09T00:09:22;76539.00;;;-145.10;96.66
56334;BME280;42240;53.626;55.886;2022-09-09T00:11:01;76540.97;;;-145.10;96.87
56334;BME280;42240;53.626;55.886;2022-09-09T00:13:01;76539.00;;;-145.10;96.76
56334;BME280;42240;53.626;55.886;2022-09-09T00:16:24;76535.06;;;-145.10;96.82
56334;BME280;42240;53.626;55.886;2022-09-09T00:19:39;76539.00;;;-145.10;97.08
56334;BME280;42240;53.626;55.886;2022-09-09T00:21:16;76537.03;;;-145.10;97.35
56334;BME280;42240;53.626;55.886;2022-09-09T00:22:59;76540.97;;;-145.10;97.70
56334;BME280;42240;53.626;55.886;2022-09-09T00:24:55;76531.09;;;-145.10;97.59
56334;BME280;42240;53.626;55.886;2022-09-09T00:28:19;76523.19;;;-145.10;97.63
56334;BME280;42240;53.626;55.886;2022-09-09T00:29:54;76527.13;;;-145.10;97.75
56334;BME280;42240;53.626;55.886;2022-09-09T00:31:29;76521.22;;;-145.10;97.53
56334;BME280;42240;53.626;55.886;2022-09-09T00:33:11;76523.19;;;-145.10;97.66
56334;BME280;42240;53.626;55.886;2022-09-09T00:34:49;76523.19;;;-145.10;97.74
56334;BME280;42240;53.626;55.886;2022-09-09T00:36:23;76521.22;;;-145.10;97.64
56334;BME280;42240;53.626;55.886;2022-09-09T00:38:00;76515.28;;;-145.10;97.49
56334;BME280;42240;53.626;55.886;2022-09-09T00:39:53;76517.25;;;-145.10;97.45
56334;BME280;42240;53.626;55.886;2022-09-09T00:47:12;76505.38;;;-145.10;97.17
56334;BME280;42240;53.626;55.886;2022-09-09T00:48:50;76515.28;;;-145.10;97.01
56334;BME280;42240;53.626;55.886;2022-09-09T01:02:13;76529.13;;;-145.10;97.19
56334;BME280;42240;53.626;55.886;2022-09-09T01:03:52;76525.16;;;-145.10;97.14
56334;BME280;42240;53.626;55.886;2022-09-09T01:07:09;76525.16;;;-145.10;97.36
56334;BME280;42240;53.626;55.886;2022-09-09T01:10:59;76533.06;;;-145.10;97.61
56334;BME280;42240;53.626;55.886;2022-09-09T01:14:22;76546.91;;;-145.10;97.65
56334;BME280;42240;53.626;55.886;2022-09-09T01:15:59;76540.97;;;-145.10;97.99
56334;BME280;42240;53.626;55.886;2022-09-09T01:19:34;76544.94;;;-145.10;98.14
56334;BME280;42240;53.626;55.886;2022-09-09T01:21:23;76544.94;;;-145.10;98.14
56334;BME280;42240;53.626;55.886;2022-09-09T01:24:53;76542.97;;;-145.10;98.42
56334;BME280;42240;53.626;55.886;2022-09-09T01:26:48;76540.97;;;-145.10;98.47
56334;BME280;42240;53.626;55.886;2022-09-09T01:28:29;76539.00;;;-145.10;98.78
56334;BME280;42240;53.626;55.886;2022-09-09T01:30:11;76544.94;;;-145.10;98.80
56334;BME280;42240;53.626;55.886;2022-09-09T01:33:25;76546.91;;;-145.10;99.00
56334;BME280;42240;53.626;55.886;2022-09-09T01:34:58;76550.88;;;-145.10;99.03
56334;BME280;42240;53.626;55.886;2022-09-09T01:36:39;76556.81;;;-145.10;99.11
56334;BME280;42240;53.626;55.886;2022-09-09T01:38:14;76556.81;;;-145.10;99.10
56334;BME280;42240;53.626;55.886;2022-09-09T01:39:47;76556.81;;;-145.10;99.40
56334;BME280;42240;53.626;55.886;2022-09-09T01:41:22;76562.72;;;-145.10;99.21
56334;BME280;42240;53.626;55.886;2022-09-09T01:43:04;76566.69;;;-145.10;99.14
56334;BME280;42240;53.626;55.886;2022-09-09T01:44:37;76560.75;;;-145.10;99.24
56334;BME280;42240;53.626;55.886;2022-09-09T01:46:10;76558.78;;;-145.10;99.41
56334;BME280;42240;53.626;55.886;2022-09-09T01:47:46;76566.69;;;-145.10;99.58
56334;BME280;42240;53.626;55.886;2022-09-09T01:49:48;76570.63;;;-145.10;99.61
56334;BME280;42240;53.626;55.886;2022-09-09T01:51:27;76574.59;;;-145.10;99.64
56334;BME280;42240;53.626;55.886;2022-09-09T01:53:03;76568.66;;;-145.10;99.86
56334;BME280;42240;53.626;55.886;2022-09-09T01:54:37;76572.63;;;-145.10;99.93
56334;BME280;42240;53.626;55.886;2022-09-09T02:05:44;76550.88;;;-145.10;100.00
56334;BME280;42240;53.626;55.886;2022-09-09T02:06:58;76533.06;;;-145.10;100.00
56334;BME280;42240;53.626;55.886;2022-09-09T02:08:38;76527.13;;;-145.10;100.00
56334;BME280;42240;53.626;55.886;2022-09-09T02:12:05;76505.38;;;-145.10;99.51
56334;BME280;42240;53.626;55.886;2022-09-09T02:13:47;76489.56;;;-145.10;99.42
56334;BME280;42240;53.626;55.886;2022-09-09T02:15:33;76477.72;;;-145.10;99.38
56334;BME280;42240;53.626;55.886;2022-09-09T02:17:15;76473.75;;;-145.10;98.96
56334;BME280;42240;53.626;55.886;2022-09-09T02:19:22;76440.13;;;-145.10;98.75
56334;BME280;42240;53.626;55.886;2022-09-09T02:21:04;76382.78;;;-145.10;98.42
56334;BME280;42240;53.626;55.886;2022-09-09T02:22:39;76319.53;;;-145.10;97.70
56334;BME280;42240;53.626;55.886;2022-09-09T02:24:14;76254.28;;;-145.10;96.11
56334;BME280;42240;53.626;55.886;2022-09-09T02:25:55;76163.31;;;-145.10;94.94
56334;BME280;42240;53.626;55.886;2022-09-09T02:27:30;76200.88;;;-145.10;93.36
56334;BME280;42240;53.626;55.886;2022-09-09T02:29:04;76145.53;;;-145.10;92.23
56334;BME280;42240;53.626;55.886;2022-09-09T02:30:39;76019.00;;;-145.10;89.76
56334;BME280;42240;53.626;55.886;2022-09-09T02:32:14;75943.88;;;-145.10;86.29
56334;BME280;42240;53.626;55.886;2022-09-09T02:33:51;75868.72;;;-145.10;83.81
56334;BME280;42240;53.626;55.886;2022-09-09T02:35:26;75765.94;;;-145.10;81.19
56334;BME280;42240;53.626;55.886;2022-09-09T02:37:03;75833.16;;;-145.10;78.20
56334;BME280;42240;53.626;55.886;2022-09-09T02:38:37;75977.47;;;-145.10;78.81
56334;BME280;42240;53.626;55.886;2022-09-09T02:40:17;76078.31;;;-145.10;80.43
56334;BME280;42240;53.626;55.886;2022-09-09T02:41:55;76145.53;;;-145.10;82.31
56334;BME280;42240;53.626;55.886;2022-09-09T02:43:35;76157.38;;;-145.10;83.50
56334;BME280;42240;53.626;55.886;2022-09-09T02:45:16;75953.75;;;-145.10;83.39
56334;BME280;42240;53.626;55.886;2022-09-09T02:55:09;75584.06;;;-145.10;69.75
56334;BME280;42240;53.626;55.886;2022-09-09T02:56:46;75520.78;;;-145.10;68.14
56334;BME280;42240;53.626;55.886;2022-09-09T02:58:23;75520.78;;;-145.10;67.52
56334;BME280;42240;53.626;55.886;2022-09-09T03:00:07;75414.03;;;-145.10;66.59
56334;BME280;42240;53.626;55.886;2022-09-09T03:01:40;75382.41;;;-145.10;64.81
56334;BME280;42240;53.626;55.886;2022-09-09T03:03:15;75334.97;;;-145.10;62.54
56334;BME280;42240;53.626;55.886;2022-09-09T03:04:54;75376.47;;;-145.10;61.04
56334;BME280;42240;53.626;55.886;2022-09-09T03:06:27;75378.47;;;-145.10;62.21
56334;BME280;42240;53.626;55.886;2022-09-09T03:08:10;75344.84;;;-145.10;60.98
56334;BME280;42240;53.626;55.886;2022-09-09T03:09:43;75249.97;;;-145.10;60.67
56334;BME280;42240;53.626;55.886;2022-09-09T03:11:17;75190.66;;;-145.10;58.86
56334;BME280;42240;53.626;55.886;2022-09-09T03:12:50;75265.78;;;-145.10;57.99
56334;BME280;42240;53.626;55.886;2022-09-09T03:14:23;75206.47;;;-145.10;57.21
56334;BME280;42240;53.626;55.886;2022-09-09T03:16:00;75153.09;;;-145.10;56.50
56334;BME280;42240;53.626;55.886;2022-09-09T03:17:36;75101.72;;;-145.10;55.54
56334;BME280;42240;53.626;55.886;2022-09-09T03:19:10;75157.06;;;-145.10;55.41
56334;BME280;42240;53.626;55.886;2022-09-09T03:20:43;75161.00;;;-145.10;55.34
56334;BME280;42240;53.626;55.886;2022-09-09T03:22:16;75123.47;;;-145.10;55.54
56334;BME280;42240;53.626;55.886;2022-09-09T03:23:50;75054.28;;;-145.10;54.50
56334;BME280;42240;53.626;55.886;2022-09-09T03:25:23;75109.63;;;-145.10;53.45
56334;BME280;42240;53.626;55.886;2022-09-09T03:26:58;75137.28;;;-145.10;53.99
56334;BME280;42240;53.626;55.886;2022-09-09T03:28:31;75163.00;;;-145.10;53.64
56334;BME280;42240;53.626;55.886;2022-09-09T03:30:07;75123.47;;;-145.10;54.76
56334;BME280;42240;53.626;55.886;2022-09-09T03:31:40;75190.66;;;-145.10;55.21
56334;BME280;42240;53.626;55.886;2022-09-09T03:33:13;75109.63;;;-145.10;54.61
56334;BME280;42240;53.626;55.886;2022-09-09T03:34:48;75151.13;;;-145.10;54.76
56334;BME280;42240;53.626;55.886;2022-09-09T03:36:23;75078.00;;;-145.10;54.07
56334;BME280;42240;53.626;55.886;2022-09-09T03:37:56;75099.75;;;-145.10;53.05
56334;BME280;42240;53.626;55.886;2022-09-09T03:39:30;74998.94;;;-145.10;52.27
56334;BME280;42240;53.626;55.886;2022-09-09T03:41:04;75050.31;;;-145.10;51.66
56334;BME280;42240;53.626;55.886;2022-09-09T03:42:40;75168.91;;;-145.10;53.02
56334;BME280;42240;53.626;55.886;2022-09-09T03:44:14;75390.31;;;-145.10;57.14
56334;BME280;42240;53.626;55.886;2022-09-09T03:45:48;75423.94;;;-145.10;59.93
56334;BME280;42240;53.626;55.886;2022-09-09T03:47:21;75327.06;;;-145.10;59.90
56334;BME280;42240;53.626;55.886;2022-09-09T03:48:58;75378.47;;;-145.10;60.42
56334;BME280;42240;53.626;55.886;2022-09-09T03:50:32;75151.13;;;-145.10;59.07
56334;BME280;42240;53.626;55.886;2022-09-09T03:52:05;74969.28;;;-145.10;55.38
56334;BME280;42240;53.626;55.886;2022-09-09T03:53:38;75125.44;;;-145.10;52.89
56334;BME280;42240;53.626;55.886;2022-09-09T03:55:12;75293.44;;;-145.10;56.45
56334;BME280;42240;53.626;55.886;2022-09-09T03:56:45;75441.72;;;-145.10;59.63
56334;BME280;42240;53.626;55.886;2022-09-09T03:58:18;75524.75;;;-145.10;62.14
56334;BME280;42240;53.626;55.886;2022-09-09T03:59:52;75623.59;;;-145.10;64.84
56334;BME280;42240;53.626;55.886;2022-09-09T04:01:25;75671.03;;;-145.10;66.87
56334;BME280;42240;53.626;55.886;2022-09-09T04:02:58;75674.97;;;-145.10;68.74
56334;BME280;42240;53.626;55.886;2022-09-09T04:04:32;75657.19;;;-145.10;69.05
56334;BME280;42240;53.626;55.886;2022-09-09T04:06:06;75621.59;;;-145.10;69.18
56334;BME280;42240;53.626;55.886;2022-09-09T04:07:41;75552.41;;;-145.10;68.61
56334;BME280;42240;53.626;55.886;2022-09-09T04:09:14;75548.47;;;-145.10;67.24
56334;BME280;42240;53.626;55.886;2022-09-09T04:10:48;75435.78;;;-145.10;66.54
56334;BME280;42240;53.626;55.886;2022-09-09T04:12:22;75184.72;;;-145.10;62.28
56334;BME280;42240;53.626;55.886;2022-09-09T04:13:55;75044.38;;;-145.10;57.00
56334;BME280;42240;53.626;55.886;2022-09-09T04:15:28;75050.31;;;-145.10;54.11
56334;BME280;42240;53.626;55.886;2022-09-09T04:17:01;74931.72;;;-145.10;52.69
56334;BME280;42240;53.626;55.886;2022-09-09T04:18:38;74848.72;;;-145.10;51.77
56334;BME280;42240;53.626;55.886;2022-09-09T04:20:12;74801.28;;;-145.10;48.55
56334;BME280;42240;53.626;55.886;2022-09-09T04:21:45;74939.63;;;-145.10;49.53
56334;BME280;42240;53.626;55.886;2022-09-09T04:23:18;74882.31;;;-145.10;50.59
56334;BME280;42240;53.626;55.886;2022-09-09T04:24:52;74973.22;;;-145.10;51.01
56334;BME280;42240;53.626;55.886;2022-09-09T04:26:25;75161.00;;;-145.10;53.53
56334;BME280;42240;53.626;55.886;2022-09-09T04:27:58;75224.28;;;-145.10;54.89
56334;BME280;42240;53.626;55.886;2022-09-09T04:29:32;75224.28;;;-145.10;56.57
56334;BME280;42240;53.626;55.886;2022-09-09T04:31:07;75226.25;;;-145.10;57.22
56334;BME280;42240;53.626;55.886;2022-09-09T04:32:43;75174.84;;;-145.10;56.17
56334;BME280;42240;53.626;55.886;2022-09-09T04:34:16;75105.66;;;-145.10;55.99
56334;BME280;42240;53.626;55.886;2022-09-09T04:35:49;75099.75;;;-145.10;54.79
56334;BME280;42240;53.626;55.886;2022-09-09T04:37:23;75117.53;;;-145.10;54.02
56334;BME280;42240;53.626;55.886;2022-09-09T04:38:57;75147.19;;;-145.10;54.98
56334;BME280;42240;53.626;55.886;2022-09-09T04:40:30;75153.09;;;-145.10;56.30
56334;BME280;42240;53.626;55.886;2022-09-09T04:42:04;75074.03;;;-145.10;56.36
56334;BME280;42240;53.626;55.886;2022-09-09T04:43:39;75002.88;;;-145.10;53.68
56334;BME280;42240;53.626;55.886;2022-09-09T04:45:13;75022.66;;;-145.10;54.55
56334;BME280;42240;53.626;55.886;2022-09-09T04:46:46;75036.47;;;-145.10;53.42
56334;BME280;42240;53.626;55.886;2022-09-09T04:48:20;75115.56;;;-145.10;54.93
56334;BME280;42240;53.626;55.886;2022-09-09T04:49:54;75129.38;;;-145.10;55.31
56334;BME280;42240;53.626;55.886;2022-09-09T04:51:27;75172.88;;;-145.10;54.75
56334;BME280;42240;53.626;55.886;2022-09-09T04:53:04;75076.00;;;-145.10;56.48
56334;BME280;42240;53.626;55.886;2022-09-09T04:54:40;74836.84;;;-145.10;52.35
56334;BME280;42240;53.626;55.886;2022-09-09T04:56:15;74658.97;;;-145.10;47.06
56334;BME280;42240;53.626;55.886;2022-09-09T04:58:03;74647.09;;;-145.10;47.07
56334;BME280;42240;53.626;55.886;2022-09-09T04:59:39;74623.38;;;-145.10;45.32
56334;BME280;42240;53.626;55.886;2022-09-09T05:01:17;74749.88;;;-145.10;45.84
56334;BME280;42240;53.626;55.886;2022-09-09T05:02:53;74886.25;;;-145.10;47.67
56334;BME280;42240;53.626;55.886;2022-09-09T05:04:25;74987.06;;;-145.10;48.75
56334;BME280;42240;53.626;55.886;2022-09-09T05:06:03;75032.53;;;-145.10;50.10
56334;BME280;42240;53.626;55.886;2022-09-09T05:07:37;75054.28;;;-145.10;52.12
56334;BME280;42240;53.626;55.886;2022-09-09T05:09:10;75113.56;;;-145.10;51.75
56334;BME280;42240;53.626;55.886;2022-09-09T05:10:43;75184.72;;;-145.10;52.07
56334;BME280;42240;53.626;55.886;2022-09-09T05:12:17;75212.41;;;-145.10;52.89
56334;BME280;42240;53.626;55.886;2022-09-09T05:13:55;75259.84;;;-145.10;54.03
56334;BME280;42240;53.626;55.886;2022-09-09T05:15:29;75303.34;;;-145.10;56.25
56334;BME280;42240;53.626;55.886;2022-09-09T05:17:02;75372.53;;;-145.10;55.95
56334;BME280;42240;53.626;55.886;2022-09-09T05:18:35;75396.25;;;-145.10;57.61
56334;BME280;42240;53.626;55.886;2022-09-09T05:20:09;75439.75;;;-145.10;59.42
56334;BME280;42240;53.626;55.886;2022-09-09T05:21:48;75457.53;;;-145.10;60.84
56334;BME280;42240;53.626;55.886;2022-09-09T05:23:27;75497.06;;;-145.10;62.42
56334;BME280;42240;53.626;55.886;2022-09-09T05:25:00;75574.16;;;-145.10;64.20
56334;BME280;42240;53.626;55.886;2022-09-09T05:26:34;75631.50;;;-145.10;66.57
56334;BME280;42240;53.626;55.886;2022-09-09T05:28:07;75651.25;;;-145.10;68.63
56334;BME280;42240;53.626;55.886;2022-09-09T05:29:40;75659.16;;;-145.10;69.39
56334;BME280;42240;53.626;55.886;2022-09-09T05:31:16;75661.16;;;-145.10;70.75
56334;BME280;42240;53.626;55.886;2022-09-09T05:32:55;75671.03;;;-145.10;70.72
56334;BME280;42240;53.626;55.886;2022-09-09T05:34:28;75680.91;;;-145.10;71.35
56334;BME280;42240;53.626;55.886;2022-09-09T05:36:03;75718.47;;;-145.10;71.54
56334;BME280;42240;53.626;55.886;2022-09-09T05:37:37;75722.44;;;-145.10;72.62
56334;BME280;42240;53.626;55.886;2022-09-09T05:39:10;75722.44;;;-145.10;72.77
56334;BME280;42240;53.626;55.886;2022-09-09T05:40:48;75754.06;;;-145.10;73.21
56334;BME280;42240;53.626;55.886;2022-09-09T05:42:21;75736.28;;;-145.10;73.06
56334;BME280;42240;53.626;55.886;2022-09-09T05:43:54;75728.38;;;-145.10;73.71
56334;BME280;42240;53.626;55.886;2022-09-09T05:45:28;75752.09;;;-145.10;74.32
56334;BME280;42240;53.626;55.886;2022-09-09T05:47:01;75767.91;;;-145.10;74.80
56334;BME280;42240;53.626;55.886;2022-09-09T05:48:35;75750.13;;;-145.10;74.34
56334;BME280;42240;53.626;55.886;2022-09-09T05:50:08;75742.19;;;-145.10;74.72
56334;BME280;42240;53.626;55.886;2022-09-09T05:51:41;75688.81;;;-145.10;74.60
56334;BME280;42240;53.626;55.886;2022-09-09T05:53:17;75667.06;;;-145.10;73.59
56334;BME280;42240;53.626;55.886;2022-09-09T05:54:50;75645.34;;;-145.10;72.57
56334;BME280;42240;53.626;55.886;2022-09-09T05:56:24;75625.56;;;-145.10;72.80
56334;BME280;42240;53.626;55.886;2022-09-09T05:57:59;75603.81;;;-145.10;72.60
56334;BME280;42240;53.626;55.886;2022-09-09T05:59:33;75611.72;;;-145.10;71.69
56334;BME280;42240;53.626;55.886;2022-09-09T06:01:08;75601.84;;;-145.10;70.35
56334;BME280;42240;53.626;55.886;2022-09-09T06:02:42;75631.50;;;-145.10;69.55
56334;BME280;42240;53.626;55.886;2022-09-09T06:04:18;75619.63;;;-145.10;69.72
56334;BME280;42240;53.626;55.886;2022-09-09T06:05:57;75619.63;;;-145.10;69.64
56334;BME280;42240;53.626;55.886;2022-09-09T06:07:30;75599.88;;;-145.10;70.10
56334;BME280;42240;53.626;55.886;2022-09-09T06:09:03;75607.78;;;-145.10;70.63
56334;BME280;42240;53.626;55.886;2022-09-09T06:10:40;75621.59;;;-145.10;70.44
56334;BME280;42240;53.626;55.886;2022-09-09T06:12:12;75584.06;;;-145.10;70.38
56334;BME280;42240;53.626;55.886;2022-09-09T06:13:46;75586.03;;;-145.10;69.61
56334;BME280;42240;53.626;55.886;2022-09-09T06:15:20;75560.31;;;-145.10;70.08
56334;BME280;42240;53.626;55.886;2022-09-09T06:16:53;75593.94;;;-145.10;70.10
56334;BME280;42240;53.626;55.886;2022-09-09T06:18:28;75582.06;;;-145.10;69.89
56334;BME280;42240;53.626;55.886;2022-09-09T06:20:02;75540.56;;;-145.10;69.31
56334;BME280;42240;53.626;55.886;2022-09-09T06:21:37;75540.56;;;-145.10;68.67
56334;BME280;42240;53.626;55.886;2022-09-09T06:23:12;75528.69;;;-145.10;68.41
56334;BME280;42240;53.626;55.886;2022-09-09T06:24:45;75485.19;;;-145.10;68.35
56334;BME280;42240;53.626;55.886;2022-09-09T06:26:22;75421.94;;;-145.10;68.15
56334;BME280;42240;53.626;55.886;2022-09-09T06:27:57;75412.06;;;-145.10;66.64
56334;BME280;42240;53.626;55.886;2022-09-09T06:29:30;75406.13;;;-145.10;64.91
56334;BME280;42240;53.626;55.886;2022-09-09T06:31:04;75408.09;;;-145.10;64.83
56334;BME280;42240;53.626;55.886;2022-09-09T06:32:38;75400.19;;;-145.10;64.89
56334;BME280;42240;53.626;55.886;2022-09-09T06:34:12;75406.13;;;-145.10;64.35
56334;BME280;42240;53.626;55.886;2022-09-09T06:35:52;75421.94;;;-145.10;64.50
56334;BME280;42240;53.626;55.886;2022-09-09T06:37:26;75429.84;;;-145.10;64.13
56334;BME280;42240;53.626;55.886;2022-09-09T06:39:00;75414.03;;;-145.10;64.58
56334;BME280;42240;53.626;55.886;2022-09-09T06:40:33;75416.00;;;-145.10;64.85
56334;BME280;42240;53.626;55.886;2022-09-09T06:42:07;75431.84;;;-145.10;63.96
56334;BME280;42240;53.626;55.886;2022-09-09T06:43:59;75473.34;;;-145.10;63.19
56334;BME280;42240;53.626;55.886;2022-09-09T06:45:39;75477.28;;;-145.10;63.16
56334;BME280;42240;53.626;55.886;2022-09-09T06:47:13;75493.13;;;-145.10;63.67
56334;BME280;42240;53.626;55.886;2022-09-09T06:48:47;75508.94;;;-145.10;63.18
56334;BME280;42240;53.626;55.886;2022-09-09T06:50:21;75540.56;;;-145.10;63.62
56334;BME280;42240;53.626;55.886;2022-09-09T06:51:54;75540.56;;;-145.10;64.77
56334;BME280;42240;53.626;55.886;2022-09-09T06:53:28;75558.34;;;-145.10;64.37
56334;BME280;42240;53.626;55.886;2022-09-09T06:55:03;75552.41;;;-145.10;65.28
56334;BME280;42240;53.626;55.886;2022-09-09T06:56:41;75576.13;;;-145.10;65.32
56334;BME280;42240;53.626;55.886;2022-09-09T06:58:26;75584.06;;;-145.10;65.57
56334;BME280;42240;53.626;55.886;2022-09-09T07:00:00;75595.91;;;-145.10;66.12
56334;BME280;42240;53.626;55.886;2022-09-09T07:01:35;75601.84;;;-145.10;65.82
56334;BME280;42240;53.626;55.886;2022-09-09T07:03:11;75611.72;;;-145.10;65.68
56334;BME280;42240;53.626;55.886;2022-09-09T07:04:44;75627.53;;;-145.10;66.75
56334;BME280;42240;53.626;55.886;2022-09-09T07:06:24;75635.44;;;-145.10;66.13
56334;BME280;42240;53.626;55.886;2022-09-09T07:07:57;75647.31;;;-145.10;64.83
56334;BME280;42240;53.626;55.886;2022-09-09T07:09:32;75665.09;;;-145.10;65.18
56334;BME280;42240;53.626;55.886;2022-09-09T07:11:06;75663.13;;;-145.10;65.12
56334;BME280;42240;53.626;55.886;2022-09-09T07:12:49;75684.88;;;-145.10;64.84
56334;BME280;42240;53.626;55.886;2022-09-09T07:14:22;75682.91;;;-145.10;65.24
56334;BME280;42240;53.626;55.886;2022-09-09T07:16:10;75671.03;;;-145.10;65.88
56334;BME280;42240;53.626;55.886;2022-09-09T07:17:43;75694.75;;;-145.10;64.85
56334;BME280;42240;53.626;55.886;2022-09-09T07:19:16;75698.72;;;-145.10;65.16
56334;BME280;42240;53.626;55.886;2022-09-09T07:20:52;75698.72;;;-145.10;65.17
56334;BME280;42240;53.626;55.886;2022-09-09T07:22:27;75706.63;;;-145.10;65.88
56334;BME280;42240;53.626;55.886;2022-09-09T07:24:01;75714.53;;;-145.10;66.20
56334;BME280;42240;53.626;55.886;2022-09-09T07:25:35;75714.53;;;-145.10;66.83
56334;BME280;42240;53.626;55.886;2022-09-09T07:27:09;75728.38;;;-145.10;67.27
56334;BME280;42240;53.626;55.886;2022-09-09T07:28:43;75730.34;;;-145.10;67.28
56334;BME280;42240;53.626;55.886;2022-09-09T07:30:16;75742.19;;;-145.10;67.34
56334;BME280;42240;53.626;55.886;2022-09-09T07:31:58;75760.00;;;-145.10;66.52
56334;BME280;42240;53.626;55.886;2022-09-09T07:33:37;75754.06;;;-145.10;66.83
56334;BME280;42240;53.626;55.886;2022-09-09T07:35:10;75761.97;;;-145.10;67.36
56334;BME280;42240;53.626;55.886;2022-09-09T07:36:44;75781.75;;;-145.10;67.81
56334;BME280;42240;53.626;55.886;2022-09-09T07:38:18;75789.66;;;-145.10;68.22
56334;BME280;42240;53.626;55.886;2022-09-09T07:39:52;75793.59;;;-145.10;68.98
56334;BME280;42240;53.626;55.886;2022-09-09T07:41:30;75797.56;;;-145.10;68.91
56334;BME280;42240;53.626;55.886;2022-09-09T07:43:05;75793.59;;;-145.10;69.56
56334;BME280;42240;53.626;55.886;2022-09-09T07:44:38;75789.66;;;-145.10;70.27
56334;BME280;42240;53.626;55.886;2022-09-09T07:46:21;75791.63;;;-145.10;70.29
56334;BME280;42240;53.626;55.886;2022-09-09T07:47:55;75797.56;;;-145.10;70.52
56334;BME280;42240;53.626;55.886;2022-09-09T07:49:29;75797.56;;;-145.10;70.57
56334;BME280;42240;53.626;55.886;2022-09-09T07:51:15;75807.44;;;-145.10;71.08
56334;BME280;42240;53.626;55.886;2022-09-09T07:52:54;75819.31;;;-145.10;71.70
56334;BME280;42240;53.626;55.886;2022-09-09T07:54:29;75817.31;;;-145.10;72.10
56334;BME280;42240;53.626;55.886;2022-09-09T07:56:06;75825.25;;;-145.10;72.73
56334;BME280;42240;53.626;55.886;2022-09-09T07:57:42;75819.31;;;-145.10;72.95
56334;BME280;42240;53.626;55.886;2022-09-09T07:59:16;75827.22;;;-145.10;73.71
56334;BME280;42240;53.626;55.886;2022-09-09T08:00:51;75837.09;;;-145.10;75.02
56334;BME280;42240;53.626;55.886;2022-09-09T08:02:27;75839.06;;;-145.10;75.31
56334;BME280;42240;53.626;55.886;2022-09-09T08:04:03;75854.91;;;-145.10;75.23
56334;BME280;42240;53.626;55.886;2022-09-09T08:05:36;75856.88;;;-145.10;75.89
56334;BME280;42240;53.626;55.886;2022-09-09T08:07:12;75860.81;;;-145.10;76.07
56334;BME280;42240;53.626;55.886;2022-09-09T08:08:52;75872.69;;;-145.10;76.63
56334;BME280;42240;53.626;55.886;2022-09-09T08:10:25;75872.69;;;-145.10;76.71
56334;BME280;42240;53.626;55.886;2022-09-09T08:12:00;75878.63;;;-145.10;76.55
56334;BME280;42240;53.626;55.886;2022-09-09T08:13:35;75860.81;;;-145.10;76.73
56334;BME280;42240;53.626;55.886;2022-09-09T08:15:08;75854.91;;;-145.10;77.74
56334;BME280;42240;53.626;55.886;2022-09-09T08:16:43;75843.03;;;-145.10;78.32
56334;BME280;42240;53.626;55.886;2022-09-09T08:18:19;75841.06;;;-145.10;79.07
56334;BME280;42240;53.626;55.886;2022-09-09T08:19:52;75827.22;;;-145.10;78.53
56334;BME280;42240;53.626;55.886;2022-09-09T08:21:31;75821.28;;;-145.10;78.74
56334;BME280;42240;53.626;55.886;2022-09-09T08:23:05;75809.41;;;-145.10;78.59
56334;BME280;42240;53.626;55.886;2022-09-09T08:24:39;75799.53;;;-145.10;78.40
56334;BME280;42240;53.626;55.886;2022-09-09T08:26:15;75797.56;;;-145.10;77.39
56334;BME280;42240;53.626;55.886;2022-09-09T08:27:48;75781.75;;;-145.10;77.01
56334;BME280;42240;53.626;55.886;2022-09-09T08:29:22;75767.91;;;-145.10;76.64
56334;BME280;42240;53.626;55.886;2022-09-09T08:31:04;75738.25;;;-145.10;75.67
56334;BME280;42240;53.626;55.886;2022-09-09T08:32:37;75710.56;;;-145.10;75.29
56334;BME280;42240;53.626;55.886;2022-09-09T08:34:15;75674.97;;;-145.10;75.08
56334;BME280;42240;53.626;55.886;2022-09-09T08:35:51;75625.56;;;-145.10;74.62
56334;BME280;42240;53.626;55.886;2022-09-09T08:37:25;75562.31;;;-145.10;73.88
56334;BME280;42240;53.626;55.886;2022-09-09T08:38:59;75512.88;;;-145.10;72.27
56334;BME280;42240;53.626;55.886;2022-09-09T08:40:33;75465.44;;;-145.10;72.62
56334;BME280;42240;53.626;55.886;2022-09-09T08:42:17;75439.75;;;-145.10;70.56
56334;BME280;42240;53.626;55.886;2022-09-09T08:44:05;75441.72;;;-145.10;68.24
56334;BME280;42240;53.626;55.886;2022-09-09T08:46:00;75441.72;;;-145.10;67.12
56334;BME280;42240;53.626;55.886;2022-09-09T08:49:19;75443.69;;;-145.10;67.52
56334;BME280;42240;53.626;55.886;2022-09-09T08:50:58;75412.06;;;-145.10;67.42
56334;BME280;42240;53.626;55.886;2022-09-09T08:54:41;75421.94;;;-145.10;65.68
56334;BME280;42240;53.626;55.886;2022-09-09T08:56:25;75402.19;;;-145.10;66.87
56334;BME280;42240;53.626;55.886;2022-09-09T08:58:13;75392.28;;;-145.10;66.72
56334;BME280;42240;53.626;55.886;2022-09-09T08:59:48;75386.38;;;-145.10;66.78
56334;BME280;42240;53.626;55.886;2022-09-09T09:01:42;75378.47;;;-145.10;64.23
56334;BME280;42240;53.626;55.886;2022-09-09T09:12:18;75457.53;;;-145.10;63.85
56334;BME280;42240;53.626;55.886;2022-09-09T09:14:03;75501.03;;;-145.10;64.95
56334;BME280;42240;53.626;55.886;2022-09-09T09:15:37;75479.28;;;-145.10;65.94
56334;BME280;42240;53.626;55.886;2022-09-09T09:17:13;75514.84;;;-145.10;66.13
56334;BME280;42240;53.626;55.886;2022-09-09T09:18:47;75544.50;;;-145.10;66.77